Time;durP1;ratioP1;P1;durP2;ratioP2;P2;SDS_P1;SDS_P2;PMS_P1;PMS_P2;Temp;Humidity;BMP_temperature;BMP_pressure;BME280_temperature;BME280_humidity;BME280_pressure;Samples;Min_cycle;Max_cycle;Signal;HPM_P1;HPM_P2
2022/10/10 00:01:21;;;;;;;;;;;7.60;99.90;;;;;;4974549;28;1019;-61
2022/10/10 00:03:46;;;;;;;;;;;7.60;99.90;;;;;;4973538;28;1188;-60
2022/10/10 00:06:13;;;;;;;;;;;7.60;99.90;;;;;;4974032;28;1242;-61
2022/10/10 00:08:39;;;;;;;;;;;7.50;99.90;;;;;;4974244;28;1225;-60
2022/10/10 00:11:05;;;;;;;;;;;7.60;99.90;;;;;;4967084;28;1636;-61
2022/10/10 00:13:31;;;;;;;;;;;7.60;99.90;;;;;;4955316;29;1056;-60
2022/10/10 00:15:56;;;;;;;;;;;7.60;99.90;;;;;;4967443;28;1153;-61
2022/10/10 00:18:22;;;;;;;;;;;7.60;99.90;;;;;;4959596;28;1902;-61
2022/10/10 00:20:49;;;;;;;;;;;7.60;99.90;;;;;;4955011;28;1021;-60
2022/10/10 00:23:15;;;;;;;;;;;7.70;99.90;;;;;;4955258;28;1176;-61
2022/10/10 00:25:41;;;;;;;;;;;7.70;99.90;;;;;;4973613;28;1140;-61
2022/10/10 00:28:06;;;;;;;;;;;7.70;99.90;;;;;;4973839;28;1025;-60
2022/10/10 00:30:32;;;;;;;;;;;7.80;99.90;;;;;;4974346;28;1040;-61
2022/10/10 00:32:58;;;;;;;;;;;7.70;99.90;;;;;;4973342;28;1243;-61
2022/10/10 00:35:24;;;;;;;;;;;7.80;99.90;;;;;;4973781;28;1511;-61
2022/10/10 00:37:49;;;;;;;;;;;7.70;99.90;;;;;;4974156;28;1910;-61
2022/10/10 00:40:15;;;;;;;;;;;7.80;99.90;;;;;;4972037;28;1013;-61
2022/10/10 00:42:41;;;;;;;;;;;7.70;99.90;;;;;;4973657;28;1195;-61
2022/10/10 00:45:18;;;;;;;;;;;7.70;99.90;;;;;;4973756;28;957;-61
2022/10/10 00:47:44;;;;;;;;;;;7.60;99.90;;;;;;4954895;29;1064;-60
2022/10/10 00:50:10;;;;;;;;;;;7.50;99.90;;;;;;4957650;28;1168;-60
2022/10/10 00:52:36;;;;;;;;;;;7.40;99.90;;;;;;4973434;28;1036;-60
2022/10/10 00:55:02;;;;;;;;;;;7.40;99.90;;;;;;4972501;28;1188;-61
2022/10/10 00:57:28;;;;;;;;;;;7.30;99.90;;;;;;4974552;28;1915;-61
2022/10/10 00:59:54;;;;;;;;;;;7.30;99.90;;;;;;4976808;28;1191;-61
2022/10/10 01:02:19;;;;;;;;;;;7.30;99.90;;;;;;4978313;28;1114;-60
2022/10/10 01:04:45;;;;;;;;;;;7.30;99.90;;;;;;4977611;28;1175;-60
2022/10/10 01:07:11;;;;;;;;;;;;;;;;;;4977065;28;969;-60
2022/10/10 01:09:38;;;;;;;;;;;7.10;99.90;;;;;;4977350;28;1188;-61
2022/10/10 01:12:11;;;;;;;;;;;7.10;99.90;;;;;;4963156;28;1720;-61
2022/10/10 01:14:55;;;;;;;;;;;7.10;99.90;;;;;;4957698;28;1092;-60
2022/10/10 01:17:29;;;;;;;;;;;7.00;99.90;;;;;;4959002;28;1923;-61
2022/10/10 01:20:04;;;;;;;;;;;7.00;99.90;;;;;;4956774;29;1061;-60
2022/10/10 01:22:36;;;;;;;;;;;7.00;99.90;;;;;;4957569;29;1021;-60
2022/10/10 01:25:16;;;;;;;;;;;7.00;99.90;;;;;;4958234;29;1076;-61
2022/10/10 01:27:44;;;;;;;;;;;7.00;99.90;;;;;;4957009;29;964;-60
2022/10/10 01:30:12;;;;;;;;;;;7.00;99.90;;;;;;4958412;29;1080;-61
2022/10/10 01:32:50;;;;;;;;;;;7.00;99.90;;;;;;4958123;29;1009;-60
2022/10/10 01:35:18;;;;;;;;;;;7.00;99.90;;;;;;4966445;28;1304;-61
2022/10/10 01:37:52;;;;;;;;;;;7.00;99.90;;;;;;4977475;28;1990;-60
2022/10/10 01:40:25;;;;;;;;;;;6.90;99.90;;;;;;4975832;28;1041;-61
2022/10/10 01:42:54;;;;;;;;;;;7.00;99.90;;;;;;4976068;28;1268;-61
2022/10/10 01:45:19;;;;;;;;;;;6.90;99.90;;;;;;4982306;28;1303;-61
2022/10/10 01:47:46;;;;;;;;;;;6.90;99.90;;;;;;4977056;28;900;-60
2022/10/10 01:50:14;;;;;;;;;;;6.90;99.90;;;;;;4975070;28;1029;-61
2022/10/10 01:52:52;;;;;;;;;;;6.90;99.90;;;;;;4976801;28;1188;-60
2022/10/10 01:55:18;;;;;;;;;;;6.90;99.90;;;;;;4977389;28;1009;-60
2022/10/10 01:57:54;;;;;;;;;;;6.90;99.90;;;;;;4976181;28;1972;-60
2022/10/10 02:00:19;;;;;;;;;;;6.90;99.90;;;;;;4976881;28;950;-60
2022/10/10 02:02:56;;;;;;;;;;;6.90;99.90;;;;;;4975596;28;1152;-61
2022/10/10 02:05:25;;;;;;;;;;;6.90;99.90;;;;;;4976756;28;981;-60
2022/10/10 02:07:54;;;;;;;;;;;6.90;99.90;;;;;;4976563;28;912;-60
2022/10/10 02:10:22;;;;;;;;;;;6.90;99.90;;;;;;4975238;28;1343;-60
2022/10/10 02:12:48;;;;;;;;;;;7.00;99.90;;;;;;4957072;29;1081;-61
2022/10/10 02:15:15;;;;;;;;;;;7.00;99.90;;;;;;4957649;28;981;-60
2022/10/10 02:17:42;;;;;;;;;;;7.00;99.90;;;;;;4965002;28;1922;-61
2022/10/10 02:20:10;;;;;;;;;;;6.90;99.90;;;;;;4975890;28;1199;-60
2022/10/10 02:22:37;;;;;;;;;;;6.90;99.90;;;;;;4994334;28;1195;-60
2022/10/10 02:25:04;;;;;;;;;;;6.90;99.90;;;;;;4995216;28;838;-60
2022/10/10 02:27:45;;;;;;;;;;;6.90;99.90;;;;;;4990325;28;1137;-60
2022/10/10 02:30:10;;;;;;;;;;;6.90;99.90;;;;;;4976145;28;1305;-60
2022/10/10 02:32:42;;;;;;;;;;;6.90;99.90;;;;;;4975554;28;805;-60
2022/10/10 02:35:10;;;;;;;;;;;6.90;99.90;;;;;;4975715;28;1429;-60
2022/10/10 02:37:36;;;;;;;;;;;6.90;99.90;;;;;;4975874;28;1985;-60
2022/10/10 02:40:03;;;;;;;;;;;7.00;99.90;;;;;;4975548;28;830;-60
2022/10/10 02:42:29;;;;;;;;;;;7.00;99.90;;;;;;4974369;28;1096;-60
2022/10/10 02:44:55;;;;;;;;;;;7.00;99.90;;;;;;4975200;28;1017;-60
2022/10/10 02:47:21;;;;;;;;;;;7.00;99.90;;;;;;4959657;28;1703;-60
2022/10/10 02:49:47;;;;;;;;;;;7.10;99.90;;;;;;4956611;28;1017;-60
2022/10/10 02:52:13;;;;;;;;;;;7.10;99.90;;;;;;4956031;29;1079;-60
2022/10/10 02:54:39;;;;;;;;;;;7.20;99.90;;;;;;4964869;28;1180;-60
2022/10/10 02:57:05;;;;;;;;;;;7.30;99.90;;;;;;4975640;28;1009;-60
2022/10/10 02:59:31;;;;;;;;;;;7.30;99.90;;;;;;4975135;28;1969;-60
2022/10/10 03:01:56;;;;;;;;;;;7.40;99.90;;;;;;4975785;28;1257;-60
2022/10/10 03:04:22;;;;;;;;;;;7.40;99.90;;;;;;4986908;28;1104;-60
2022/10/10 03:06:48;;;;;;;;;;;7.40;99.90;;;;;;4955653;28;1017;-60
2022/10/10 03:09:14;;;;;;;;;;;7.50;99.90;;;;;;4956428;28;1075;-60
2022/10/10 03:11:39;;;;;;;;;;;7.50;99.90;;;;;;4966906;28;1620;-60
2022/10/10 03:14:05;;;;;;;;;;;7.70;99.90;;;;;;4975011;28;1009;-60
2022/10/10 03:16:31;;;;;;;;;;;7.60;99.90;;;;;;4975475;28;1021;-60
2022/10/10 03:18:56;;;;;;;;;;;7.70;99.90;;;;;;4975057;28;1981;-60
2022/10/10 03:21:22;;;;;;;;;;;7.70;99.90;;;;;;4974036;28;1176;-60
2022/10/10 03:23:48;;;;;;;;;;;7.70;99.90;;;;;;4975356;28;1251;-60
2022/10/10 03:26:13;;;;;;;;;;;7.70;99.90;;;;;;4974212;28;1076;-60
2022/10/10 03:28:39;;;;;;;;;;;7.80;99.90;;;;;;4974401;28;1008;-60
2022/10/10 03:31:04;;;;;;;;;;;7.80;99.90;;;;;;4974850;28;1175;-60
2022/10/10 03:33:30;;;;;;;;;;;7.90;99.90;;;;;;4975006;28;1029;-60
2022/10/10 03:35:56;;;;;;;;;;;7.90;99.90;;;;;;4972957;28;1154;-60
2022/10/10 03:38:21;;;;;;;;;;;7.90;99.90;;;;;;4974668;28;1907;-60
2022/10/10 03:40:47;;;;;;;;;;;7.90;99.90;;;;;;4974925;28;989;-60
2022/10/10 03:43:13;;;;;;;;;;;7.90;99.90;;;;;;4974410;28;803;-60
2022/10/10 03:45:40;;;;;;;;;;;7.90;99.90;;;;;;4974942;28;1536;-60
2022/10/10 03:48:06;;;;;;;;;;;7.90;99.90;;;;;;4985362;28;1141;-60
2022/10/10 03:50:32;;;;;;;;;;;7.90;99.90;;;;;;4955735;28;1142;-60
2022/10/10 03:52:57;;;;;;;;;;;7.90;99.90;;;;;;4955600;28;1068;-60
2022/10/10 03:55:23;;;;;;;;;;;7.90;99.90;;;;;;4954342;28;1141;-61
2022/10/10 03:57:48;;;;;;;;;;;7.90;99.90;;;;;;4973314;28;1947;-60
2022/10/10 04:00:14;;;;;;;;;;;7.90;99.90;;;;;;4974713;28;1182;-60
2022/10/10 04:02:40;;;;;;;;;;;7.80;99.90;;;;;;4973719;28;1005;-60
2022/10/10 04:05:05;;;;;;;;;;;7.80;99.90;;;;;;4987011;28;1136;-60
2022/10/10 04:07:31;;;;;;;;;;;7.80;99.90;;;;;;4974532;28;1013;-60
2022/10/10 04:09:57;;;;;;;;;;;7.80;99.90;;;;;;4973588;28;1076;-60
2022/10/10 04:12:22;;;;;;;;;;;7.80;99.90;;;;;;4975562;28;1711;-60
2022/10/10 04:14:48;;;;;;;;;;;7.80;99.90;;;;;;4974067;28;1219;-60
2022/10/10 04:17:14;;;;;;;;;;;7.80;99.90;;;;;;4967172;28;1688;-60
2022/10/10 04:19:39;;;;;;;;;;;7.80;99.90;;;;;;4954939;29;1972;-60
2022/10/10 04:22:05;;;;;;;;;;;7.80;99.90;;;;;;4955053;28;1177;-60
2022/10/10 04:24:31;;;;;;;;;;;7.80;99.90;;;;;;4972973;28;1229;-60
2022/10/10 04:26:56;;;;;;;;;;;7.80;99.90;;;;;;4973916;28;1050;-60
2022/10/10 04:29:22;;;;;;;;;;;7.80;99.90;;;;;;4974206;28;858;-60
2022/10/10 04:31:47;;;;;;;;;;;7.80;99.90;;;;;;4972414;28;1175;-60
2022/10/10 04:34:14;;;;;;;;;;;7.80;99.90;;;;;;4974029;28;1289;-59
2022/10/10 04:36:39;;;;;;;;;;;7.80;99.90;;;;;;4974269;28;1025;-60
2022/10/10 04:39:05;;;;;;;;;;;7.80;99.90;;;;;;4973001;28;1977;-60
2022/10/10 04:41:31;;;;;;;;;;;7.80;99.90;;;;;;4972256;28;1235;-60
2022/10/10 04:43:56;;;;;;;;;;;7.80;99.90;;;;;;4974179;28;810;-60
2022/10/10 04:46:22;;;;;;;;;;;7.80;99.90;;;;;;4972791;28;1612;-60
2022/10/10 04:48:48;;;;;;;;;;;7.70;99.90;;;;;;4973789;28;1192;-60
2022/10/10 04:51:14;;;;;;;;;;;7.70;99.90;;;;;;4973674;28;1024;-60
2022/10/10 04:53:39;;;;;;;;;;;7.70;99.90;;;;;;4972997;28;937;-60
2022/10/10 04:56:05;;;;;;;;;;;7.70;99.90;;;;;;4973960;28;1040;-60
2022/10/10 04:58:30;;;;;;;;;;;7.70;99.90;;;;;;4973083;28;1975;-60
2022/10/10 05:00:56;;;;;;;;;;;7.70;99.90;;;;;;4973738;28;830;-60
2022/10/10 05:03:22;;;;;;;;;;;7.70;99.90;;;;;;4973862;28;1184;-60
2022/10/10 05:05:48;;;;;;;;;;;7.60;99.90;;;;;;4971730;28;1049;-60
2022/10/10 05:08:14;;;;;;;;;;;7.60;99.90;;;;;;4973493;28;1159;-60
2022/10/10 05:10:39;;;;;;;;;;;7.60;99.90;;;;;;4970778;28;1628;-60
2022/10/10 05:13:06;;;;;;;;;;;7.60;99.90;;;;;;4953905;29;1037;-60
2022/10/10 05:15:34;;;;;;;;;;;7.60;99.90;;;;;;4956811;28;1136;-60
2022/10/10 05:17:59;;;;;;;;;;;7.60;99.90;;;;;;4973109;28;1918;-60
2022/10/10 05:20:25;;;;;;;;;;;7.50;99.90;;;;;;4971680;28;978;-60
2022/10/10 05:22:51;;;;;;;;;;;7.60;99.90;;;;;;4973919;28;1032;-60
2022/10/10 05:25:16;;;;;;;;;;;7.60;99.90;;;;;;4973444;28;1235;-60
2022/10/10 05:27:42;;;;;;;;;;;7.60;99.90;;;;;;4972976;28;1064;-60
2022/10/10 05:30:08;;;;;;;;;;;7.50;99.90;;;;;;4973841;28;1005;-60
2022/10/10 05:32:34;;;;;;;;;;;7.50;99.90;;;;;;4973421;28;808;-60
2022/10/10 05:34:59;;;;;;;;;;;7.50;99.90;;;;;;4972413;28;1314;-60
2022/10/10 05:37:25;;;;;;;;;;;7.50;99.90;;;;;;4973880;28;997;-60
2022/10/10 05:39:51;;;;;;;;;;;7.50;99.90;;;;;;4973276;28;1924;-60
2022/10/10 05:42:16;;;;;;;;;;;7.50;99.90;;;;;;4972622;28;1157;-60
2022/10/10 05:44:42;;;;;;;;;;;7.50;99.90;;;;;;4972639;28;1009;-60
2022/10/10 05:47:07;;;;;;;;;;;7.50;99.90;;;;;;4971826;28;1625;-60
2022/10/10 05:49:33;;;;;;;;;;;7.50;99.90;;;;;;4976110;28;1001;-60
2022/10/10 05:51:59;;;;;;;;;;;7.50;99.90;;;;;;4976354;28;1369;-60
2022/10/10 05:54:24;;;;;;;;;;;7.60;99.90;;;;;;4966147;28;1312;-60
2022/10/10 05:56:50;;;;;;;;;;;7.50;99.90;;;;;;4968446;28;1299;-60
2022/10/10 05:59:16;;;;;;;;;;;7.50;99.90;;;;;;4965583;28;1907;-60
2022/10/10 06:01:41;;;;;;;;;;;7.50;99.90;;;;;;4964100;28;1225;-60
2022/10/10 06:04:07;;;;;;;;;;;7.50;99.90;;;;;;4967435;28;1271;-60
2022/10/10 06:06:33;;;;;;;;;;;7.50;99.90;;;;;;4965145;28;1266;-60
2022/10/10 06:08:58;;;;;;;;;;;7.70;99.90;;;;;;4963142;28;1245;-60
2022/10/10 06:11:24;;;;;;;;;;;7.60;99.90;;;;;;4972673;28;1686;-60
2022/10/10 06:13:53;;;;;;;;;;;7.60;99.90;;;;;;4967564;28;1293;-60
2022/10/10 06:16:22;;;;;;;;;;;7.70;99.90;;;;;;4965698;28;1313;-60
2022/10/10 06:18:48;;;;;;;;;;;7.70;99.90;;;;;;4963620;28;1914;-60
2022/10/10 06:21:14;;;;;;;;;;;7.70;99.90;;;;;;4967066;28;1241;-60
2022/10/10 06:23:40;;;;;;;;;;;7.70;99.90;;;;;;4971247;28;1241;-60
2022/10/10 06:26:05;;;;;;;;;;;7.80;99.90;;;;;;4961825;28;1225;-60
2022/10/10 06:28:31;;;;;;;;;;;7.90;99.90;;;;;;4976196;28;863;-60
2022/10/10 06:30:59;;;;;;;;;;;7.90;99.90;;;;;;4975049;28;1030;-60
2022/10/10 06:33:25;;;;;;;;;;;7.90;99.90;;;;;;4971716;28;1262;-60
2022/10/10 06:35:51;;;;;;;;;;;8.00;99.90;;;;;;4964857;28;1194;-60
2022/10/10 06:38:17;;;;;;;;;;;8.00;99.90;;;;;;4961265;28;1907;-60
2022/10/10 06:40:43;;;;;;;;;;;8.10;99.90;;;;;;4956831;29;1000;-60
2022/10/10 06:43:10;;;;;;;;;;;8.10;99.90;;;;;;4956877;29;936;-60
2022/10/10 06:45:37;;;;;;;;;;;8.10;99.90;;;;;;4969661;28;1323;-60
2022/10/10 06:48:03;;;;;;;;;;;8.20;99.90;;;;;;4976153;28;965;-60
2022/10/10 06:50:29;;;;;;;;;;;8.30;99.90;;;;;;4976137;28;1032;-60
2022/10/10 06:52:54;;;;;;;;;;;8.40;99.90;;;;;;4966141;28;1257;-61
2022/10/10 06:55:20;;;;;;;;;;;8.40;99.90;;;;;;4963276;28;1254;-60
2022/10/10 06:57:46;;;;;;;;;;;8.50;99.90;;;;;;4966122;28;1985;-60
2022/10/10 07:00:11;;;;;;;;;;;8.60;99.90;;;;;;4971147;28;1285;-60
2022/10/10 07:02:39;;;;;;;;;;;8.70;99.90;;;;;;4974465;28;1144;-60
2022/10/10 07:05:08;;;;;;;;;;;8.80;99.90;;;;;;4974206;28;1033;-60
2022/10/10 07:07:34;;;;;;;;;;;8.90;99.90;;;;;;4973337;28;1063;-60
2022/10/10 07:09:59;;;;;;;;;;;9.00;99.90;;;;;;4973738;28;847;-61
2022/10/10 07:12:25;;;;;;;;;;;9.10;99.90;;;;;;4956608;28;1251;-60
2022/10/10 07:14:51;;;;;;;;;;;9.10;99.90;;;;;;4956024;29;1009;-61
2022/10/10 07:17:16;;;;;;;;;;;9.30;99.90;;;;;;4961805;28;1617;-61
2022/10/10 07:19:42;;;;;;;;;;;9.40;99.90;;;;;;4972297;28;1906;-60
2022/10/10 07:22:07;;;;;;;;;;;9.50;99.90;;;;;;4966037;28;1178;-60
2022/10/10 07:24:33;;;;;;;;;;;9.70;99.90;;;;;;4964621;28;1324;-61
2022/10/10 07:26:59;;;;;;;;;;;9.70;99.90;;;;;;4956025;28;1217;-61
2022/10/10 07:29:26;;;;;;;;;;;9.80;99.90;;;;;;4957764;28;1234;-61
2022/10/10 07:31:52;;;;;;;;;;;9.90;99.90;;;;;;4962559;28;1237;-61
2022/10/10 07:34:18;;;;;;;;;;;10.00;99.90;;;;;;4963718;28;1307;-61
2022/10/10 07:36:47;;;;;;;;;;;10.10;99.90;;;;;;4965862;28;1213;-61
2022/10/10 07:39:13;;;;;;;;;;;10.20;99.90;;;;;;4966480;28;1910;-61
2022/10/10 07:41:39;;;;;;;;;;;10.30;99.90;;;;;;4965172;28;1270;-61
2022/10/10 07:44:04;;;;;;;;;;;10.40;99.90;;;;;;4956613;28;958;-61
2022/10/10 07:46:32;;;;;;;;;;;10.50;99.90;;;;;;4974854;28;1739;-61
2022/10/10 07:48:57;;;;;;;;;;;10.60;99.90;;;;;;4966831;28;1230;-61
2022/10/10 07:51:23;;;;;;;;;;;10.80;99.90;;;;;;4964947;28;3463;-61
2022/10/10 07:53:50;;;;;;;;;;;10.90;99.90;;;;;;4970988;28;3610;-61
2022/10/10 07:56:16;;;;;;;;;;;11.00;99.90;;;;;;4971670;28;1250;-61
2022/10/10 07:58:41;;;;;;;;;;;11.00;99.90;;;;;;4963840;28;3048;-61
2022/10/10 08:01:09;;;;;;;;;;;11.20;99.90;;;;;;4981005;28;1297;-61
2022/10/10 08:03:34;;;;;;;;;;;11.30;99.90;;;;;;4969769;28;1201;-61
2022/10/10 08:06:03;;;;;;;;;;;11.40;99.90;;;;;;4964370;28;1229;-61
2022/10/10 08:08:28;;;;;;;;;;;11.40;99.90;;;;;;4963870;28;1261;-61
2022/10/10 08:10:54;;;;;;;;;;;11.40;99.90;;;;;;4965388;28;1473;-61
2022/10/10 08:13:20;;;;;;;;;;;11.40;99.90;;;;;;4964242;28;1182;-61
2022/10/10 08:15:48;;;;;;;;;;;11.40;99.90;;;;;;4971800;28;1359;-61
2022/10/10 08:18:14;;;;;;;;;;;11.20;99.90;;;;;;4961546;28;1972;-61
2022/10/10 08:20:40;;;;;;;;;;;11.10;99.90;;;;;;4954938;29;881;-60
2022/10/10 08:23:05;;;;;;;;;;;11.00;99.90;;;;;;4970921;28;1227;-61
2022/10/10 08:25:31;;;;;;;;;;;10.90;99.90;;;;;;4974115;28;1156;-61
2022/10/10 08:27:57;;;;;;;;;;;10.90;99.90;;;;;;4974334;28;1024;-61
2022/10/10 08:30:22;;;;;;;;;;;11.10;99.90;;;;;;4973037;28;1159;-60
2022/10/10 08:32:48;;;;;;;;;;;11.10;99.90;;;;;;4974544;28;941;-61
2022/10/10 08:35:14;;;;;;;;;;;11.20;99.90;;;;;;4974173;28;1128;-60
2022/10/10 08:37:39;;;;;;;;;;;11.30;99.90;;;;;;4973221;28;1969;-61
2022/10/10 08:40:05;;;;;;;;;;;11.30;99.90;;;;;;4973994;28;1239;-61
2022/10/10 08:42:35;;;;;;;;;;;11.20;99.90;;;;;;4974192;28;826;-60
2022/10/10 08:45:05;;;;;;;;;;;11.10;99.90;;;;;;4973033;28;1028;-61
2022/10/10 08:47:40;;;;;;;;;;;11.10;99.90;;;;;;4972277;28;1684;-61
2022/10/10 08:50:13;;;;;;;;;;;11.20;99.90;;;;;;4974141;28;862;-61
2022/10/10 08:52:52;;;;;;;;;;;11.40;99.90;;;;;;4972909;28;1198;-61
2022/10/10 08:55:21;;;;;;;;;;;11.50;99.90;;;;;;4973594;28;1045;-61
2022/10/10 08:57:50;;;;;;;;;;;11.40;99.90;;;;;;4972709;28;1922;-61
2022/10/10 09:00:20;;;;;;;;;;;11.50;99.90;;;;;;4974037;28;1013;-61
2022/10/10 09:02:52;;;;;;;;;;;11.50;99.90;;;;;;4974021;28;1017;-61
2022/10/10 09:05:20;;;;;;;;;;;11.50;99.90;;;;;;4972280;28;1192;-61
2022/10/10 09:07:54;;;;;;;;;;;11.50;99.90;;;;;;4973880;28;874;-61
2022/10/10 09:10:31;;;;;;;;;;;11.50;99.90;;;;;;4973439;28;1671;-61
2022/10/10 09:13:20;;;;;;;;;;;11.60;99.90;;;;;;4953609;29;1013;-61
2022/10/10 09:15:55;;;;;;;;;;;11.80;99.90;;;;;;4966560;28;1224;-61
2022/10/10 09:18:22;;;;;;;;;;;12.00;99.90;;;;;;4959000;28;1902;-61
2022/10/10 09:20:57;;;;;;;;;;;12.30;99.90;;;;;;4956123;29;1057;-61
2022/10/10 09:23:27;;;;;;;;;;;12.70;99.90;;;;;;4962124;28;1160;-61
2022/10/10 09:25:57;;;;;;;;;;;12.90;99.90;;;;;;4976751;28;922;-61
2022/10/10 09:28:32;;;;;;;;;;;13.20;99.90;;;;;;4977114;28;973;-61
2022/10/10 09:30:59;;;;;;;;;;;13.40;99.90;;;;;;4977777;28;1009;-61
2022/10/10 09:33:30;;;;;;;;;;;13.10;99.90;;;;;;4976422;28;1148;-61
2022/10/10 09:35:58;;;;;;;;;;;13.00;99.90;;;;;;4976810;28;1282;-61
2022/10/10 09:38:34;;;;;;;;;;;12.90;99.90;;;;;;4977346;28;1970;-61
2022/10/10 09:41:03;;;;;;;;;;;12.70;99.90;;;;;;4974713;28;1905;-61
2022/10/10 09:43:31;;;;;;;;;;;12.70;99.90;;;;;;4977093;28;914;-61
2022/10/10 09:45:57;;;;;;;;;;;12.80;99.90;;;;;;4977035;28;1619;-61
2022/10/10 09:48:30;;;;;;;;;;;13.00;99.90;;;;;;4976527;28;1017;-61
2022/10/10 09:50:56;;;;;;;;;;;13.40;99.90;;;;;;4976104;28;1188;-61
2022/10/10 09:53:22;;;;;;;;;;;13.90;99.90;;;;;;4976201;28;1093;-61
2022/10/10 09:55:48;;;;;;;;;;;14.50;99.90;;;;;;4976274;28;795;-61
2022/10/10 09:58:19;;;;;;;;;;;15.00;99.90;;;;;;4976578;28;1931;-61
2022/10/10 10:00:44;;;;;;;;;;;15.40;99.90;;;;;;4976357;28;1252;-62
2022/10/10 10:03:17;;;;;;;;;;;15.70;99.90;;;;;;4976412;28;1112;-61
2022/10/10 10:05:53;;;;;;;;;;;16.00;99.90;;;;;;4975145;28;3055;-62
2022/10/10 10:08:21;;;;;;;;;;;16.40;99.90;;;;;;4975013;28;3423;-61
2022/10/10 10:10:47;;;;;;;;;;;16.20;99.90;;;;;;4972807;28;1638;-61
2022/10/10 10:13:16;;;;;;;;;;;16.00;99.90;;;;;;4994034;28;1204;-61
2022/10/10 10:15:46;;;;;;;;;;;15.70;99.90;;;;;;4980953;28;3258;-62
2022/10/10 10:18:20;;;;;;;;;;;15.50;99.90;;;;;;4963870;28;3223;-62
2022/10/10 10:20:47;;;;;;;;;;;15.30;99.90;;;;;;4976415;28;1052;-61
2022/10/10 10:23:22;;;;;;;;;;;15.20;99.90;;;;;;4971375;28;3444;-61
2022/10/10 10:25:55;;;;;;;;;;;15.30;99.90;;;;;;4965684;28;3629;-61
2022/10/10 10:28:21;;;;;;;;;;;15.30;99.90;;;;;;4974218;28;3582;-61
2022/10/10 10:30:47;;;;;;;;;;;15.50;99.90;;;;;;4974097;28;1017;-61
2022/10/10 10:33:22;;;;;;;;;;;15.70;99.90;;;;;;4965181;28;3770;-60
2022/10/10 10:35:47;;;;;;;;;;;16.30;99.90;;;;;;4965436;28;2319;-61
2022/10/10 10:38:13;;;;;;;;;;;16.60;99.90;;;;;;4974047;28;1973;-61
2022/10/10 10:40:41;;;;;;;;;;;16.40;99.90;;;;;;4965138;28;3536;-61
2022/10/10 10:43:21;;;;;;;;;;;16.70;99.90;;;;;;4962634;28;3080;-61
2022/10/10 10:46:01;;;;;;;;;;;16.80;99.90;;;;;;4964031;28;2046;-61
2022/10/10 10:48:32;;;;;;;;;;;17.20;99.90;;;;;;4955271;28;2035;-61
2022/10/10 10:51:01;;;;;;;;;;;17.80;99.90;;;;;;4964060;28;2066;-61
2022/10/10 10:53:45;;;;;;;;;;;17.80;99.90;;;;;;4975134;28;1235;-63
2022/10/10 10:56:34;;;;;;;;;;;18.20;99.90;;;;;;4964987;28;2176;-63
2022/10/10 10:59:00;;;;;;;;;;;18.10;99.90;;;;;;4966098;28;1968;-63
2022/10/10 11:01:33;;;;;;;;;;;17.50;99.90;;;;;;4964365;28;1752;-63
2022/10/10 11:04:02;;;;;;;;;;;17.20;99.90;;;;;;4959052;28;3178;-63
2022/10/10 11:06:34;;;;;;;;;;;17.50;99.90;;;;;;4974478;28;3024;-63
2022/10/10 11:09:01;;;;;;;;;;;18.20;99.90;;;;;;4973495;28;1272;-63
2022/10/10 11:11:37;;;;;;;;;;;18.10;99.90;;;;;;4973627;28;1414;-63
2022/10/10 11:14:08;;;;;;;;;;;17.60;99.90;;;;;;4975718;28;1076;-62
2022/10/10 11:16:37;;;;;;;;;;;17.20;99.90;;;;;;4975511;28;1017;-62
2022/10/10 11:19:07;;;;;;;;;;;16.90;99.90;;;;;;4973246;28;1915;-63
2022/10/10 11:21:35;;;;;;;;;;;16.50;99.90;;;;;;4975543;28;1450;-63
2022/10/10 11:24:09;;;;;;;;;;;16.60;99.90;;;;;;4975514;28;986;-63
2022/10/10 11:26:36;;;;;;;;;;;16.30;99.90;;;;;;4974325;28;1057;-63
2022/10/10 11:29:10;;;;;;;;;;;16.10;99.90;;;;;;4974682;28;1175;-63
2022/10/10 11:31:38;;;;;;;;;;;16.10;99.90;;;;;;4975493;28;1060;-63
2022/10/10 11:34:07;;;;;;;;;;;15.90;99.90;;;;;;4974251;28;997;-63
2022/10/10 11:36:36;;;;;;;;;;;15.80;99.90;;;;;;4969236;28;1405;-63
2022/10/10 11:39:04;;;;;;;;;;;15.60;99.90;;;;;;4955793;29;1914;-63
2022/10/10 11:41:35;;;;;;;;;;;15.40;99.90;;;;;;4953072;28;1045;-63
2022/10/10 11:44:06;;;;;;;;;;;15.30;99.90;;;;;;4957856;28;846;-63
2022/10/10 11:46:40;;;;;;;;;;;15.20;99.90;;;;;;4971205;28;3028;-63
2022/10/10 11:49:14;;;;;;;;;;;15.00;99.90;;;;;;4961837;28;3522;-63
2022/10/10 11:51:43;;;;;;;;;;;14.90;99.90;;;;;;4973893;28;1524;-62
2022/10/10 11:54:16;;;;;;;;;;;14.80;99.90;;;;;;4966005;28;3446;-62
2022/10/10 11:56:44;;;;;;;;;;;14.70;99.90;;;;;;4974234;28;1369;-63
2022/10/10 11:59:20;;;;;;;;;;;14.70;99.90;;;;;;4974406;28;1911;-63
2022/10/10 12:01:47;;;;;;;;;;;14.60;99.90;;;;;;4973962;28;965;-63
2022/10/10 12:04:13;;;;;;;;;;;14.50;99.90;;;;;;4967784;28;1151;-63
2022/10/10 12:06:41;;;;;;;;;;;14.40;99.90;;;;;;4965911;28;1233;-62
2022/10/10 12:09:12;;;;;;;;;;;14.30;99.90;;;;;;4980150;28;1304;-63
2022/10/10 12:11:42;;;;;;;;;;;14.30;99.90;;;;;;4972993;28;1608;-63
2022/10/10 12:14:12;;;;;;;;;;;14.00;99.90;;;;;;4974883;28;1017;-62
2022/10/10 12:16:38;;;;;;;;;;;13.90;99.90;;;;;;4973880;28;949;-63
2022/10/10 12:19:05;;;;;;;;;;;13.80;99.90;;;;;;4974409;28;1907;-63
2022/10/10 12:21:50;;;;;;;;;;;13.70;99.90;;;;;;4968604;28;1231;-63
2022/10/10 12:24:15;;;;;;;;;;;13.60;99.90;;;;;;4966902;28;1253;-62
2022/10/10 12:27:07;;;;;;;;;;;13.40;99.90;;;;;;4966506;28;1245;-63
2022/10/10 12:29:45;;;;;;;;;;;13.40;99.90;;;;;;4963530;28;1414;-63
2022/10/10 12:32:16;;;;;;;;;;;13.50;99.90;;;;;;4964589;28;1292;-63
2022/10/10 12:34:54;;;;;;;;;;;13.50;99.90;;;;;;4967099;28;1417;-63
2022/10/10 12:37:24;;;;;;;;;;;13.50;99.90;;;;;;4975085;28;1037;-63
2022/10/10 12:40:17;;;;;;;;;;;13.50;99.90;;;;;;4973621;28;9900;-63
2022/10/10 12:42:46;;;;;;;;;;;13.40;99.90;;;;;;4971235;28;10233;-63
2022/10/10 12:45:27;;;;;;;;;;;13.40;99.90;;;;;;4971261;28;1176;-63
2022/10/10 12:47:53;;;;;;;;;;;13.40;99.90;;;;;;4968168;28;1238;-63
2022/10/10 12:50:22;;;;;;;;;;;13.50;99.90;;;;;;4959134;28;1378;-63
2022/10/10 12:52:51;;;;;;;;;;;13.50;99.90;;;;;;4953928;28;3041;-63
2022/10/10 12:55:19;;;;;;;;;;;13.60;99.90;;;;;;4972841;28;3330;-63
2022/10/10 12:57:46;;;;;;;;;;;13.60;99.90;;;;;;4954108;28;2071;-63
2022/10/10 13:00:14;;;;;;;;;;;13.60;99.90;;;;;;4973657;28;3409;-63
2022/10/10 13:02:41;;;;;;;;;;;13.60;99.90;;;;;;4973418;28;981;-63
2022/10/10 13:05:10;;;;;;;;;;;13.50;99.90;;;;;;4972790;28;1199;-63
2022/10/10 13:07:36;;;;;;;;;;;13.50;99.90;;;;;;4968728;28;1424;-63
2022/10/10 13:10:06;;;;;;;;;;;13.40;99.90;;;;;;4961882;28;1377;-63
2022/10/10 13:12:32;;;;;;;;;;;13.30;99.90;;;;;;4962707;28;2782;-63
2022/10/10 13:14:58;;;;;;;;;;;13.20;99.90;;;;;;4964158;28;1308;-63
2022/10/10 13:17:28;;;;;;;;;;;13.10;99.90;;;;;;4963280;28;1300;-63
2022/10/10 13:19:54;;;;;;;;;;;13.00;99.90;;;;;;4962363;28;1981;-63
2022/10/10 13:22:20;;;;;;;;;;;13.00;99.90;;;;;;4966316;28;1288;-63
2022/10/10 13:24:46;;;;;;;;;;;13.00;99.90;;;;;;4961171;28;1300;-63
2022/10/10 13:27:17;;;;;;;;;;;12.90;99.90;;;;;;4965725;28;1396;-62
2022/10/10 13:29:42;;;;;;;;;;;12.90;99.90;;;;;;4973602;28;957;-62
2022/10/10 13:32:13;;;;;;;;;;;12.90;99.90;;;;;;4972261;28;1175;-62
2022/10/10 13:34:41;;;;;;;;;;;12.90;99.90;;;;;;4969702;28;1274;-62
2022/10/10 13:37:07;;;;;;;;;;;12.90;99.90;;;;;;4963023;28;1222;-62
2022/10/10 13:39:35;;;;;;;;;;;12.90;99.90;;;;;;4959296;28;2001;-62
2022/10/10 13:42:02;;;;;;;;;;;12.90;99.90;;;;;;4964943;28;1462;-62
2022/10/10 13:44:49;;;;;;;;;;;12.90;99.90;;;;;;4968093;28;1206;-62
2022/10/10 13:47:33;;;;;;;;;;;12.90;99.90;;;;;;4972307;28;997;-62
2022/10/10 13:49:59;;;;;;;;;;;12.90;99.90;;;;;;4966715;28;1215;-62
2022/10/10 13:52:25;;;;;;;;;;;13.00;99.90;;;;;;4972890;28;1398;-62
2022/10/10 13:54:50;;;;;;;;;;;12.90;99.90;;;;;;4972273;28;1221;-62
2022/10/10 13:57:23;;;;;;;;;;;12.90;99.90;;;;;;4972869;28;1136;-62
2022/10/10 13:59:58;;;;;;;;;;;12.80;99.90;;;;;;4972978;28;1914;-62
2022/10/10 14:02:27;;;;;;;;;;;12.80;99.90;;;;;;4962231;28;1241;-62
2022/10/10 14:04:53;;;;;;;;;;;12.70;99.90;;;;;;4963914;28;1237;-62
2022/10/10 14:07:21;;;;;;;;;;;12.80;99.90;;;;;;4967982;28;1241;-62
2022/10/10 14:10:00;;;;;;;;;;;12.90;99.90;;;;;;4971352;28;1305;-62
2022/10/10 14:12:31;;;;;;;;;;;13.00;99.90;;;;;;4976220;28;1596;-62
2022/10/10 14:14:58;;;;;;;;;;;13.00;99.90;;;;;;4974038;28;1104;-62
2022/10/10 14:17:24;;;;;;;;;;;13.00;99.90;;;;;;4975940;28;1156;-62
2022/10/10 14:19:50;;;;;;;;;;;12.90;99.90;;;;;;4976568;28;1970;-62
2022/10/10 14:22:16;;;;;;;;;;;12.80;99.90;;;;;;4975379;28;1221;-62
2022/10/10 14:24:42;;;;;;;;;;;12.70;99.90;;;;;;4971447;28;1235;-62
2022/10/10 14:27:19;;;;;;;;;;;12.60;99.90;;;;;;4965934;28;1320;-62
2022/10/10 14:29:45;;;;;;;;;;;12.50;99.90;;;;;;4970323;28;1316;-62
2022/10/10 14:32:11;;;;;;;;;;;12.40;99.90;;;;;;4975960;28;1332;-62
2022/10/10 14:34:37;;;;;;;;;;;12.40;99.90;;;;;;4975924;28;1318;-62
2022/10/10 14:37:03;;;;;;;;;;;12.30;99.90;;;;;;4975911;28;1068;-62
2022/10/10 14:39:28;;;;;;;;;;;12.30;99.90;;;;;;4976022;28;1919;-62
2022/10/10 14:41:54;;;;;;;;;;;12.40;99.90;;;;;;4975986;28;1176;-62
2022/10/10 14:44:20;;;;;;;;;;;12.30;99.90;;;;;;4975444;28;1316;-62